Masvingo, Zimbabwe
Current Conditions -  °F | °C
As of 5:00 AM on Saturday 29 Nov 2014 (Local Time) from FVHA Reporting Station
Clear Clear  
Wind Chill: 66°   Ceiling: Unl
Heat Index: 66°   Visibility: 6mi
Dew Point: 50°   Wind: 8mph
Humidity: 56%   Direction: 80°E
Pressure: 30.15"   Gusts: NA
Location:  20.06°S, 30.82°E
Report Text: FVHA 290300Z 08007KT CAVOK 19/10 Q1021 NOSIG RMK QFE 853.0
Loading
Personal Weather Stations






























Interactive Weather Map New forecast layout! Learn more

10-Day Weather Forecast

Advertisements
Track Severe Weather on mobile